sensor_id;sensor_type;location;lat;lon;timestamp;pressure;altitude;pressure_sealevel;temperature;humidity
7760;BME280;3924;48.830;9.262;2023-02-28T00:00:35;99333.78;;;-0.91;59.24
7760;BME280;3924;48.830;9.262;2023-02-28T00:03:02;99332.38;;;-0.93;59.16
7760;BME280;3924;48.830;9.262;2023-02-28T00:05:29;99338.50;;;-0.93;59.31
7760;BME280;3924;48.830;9.262;2023-02-28T00:07:56;99332.78;;;-0.90;59.44
7760;BME280;3924;48.830;9.262;2023-02-28T00:10:26;99333.59;;;-0.96;59.50
7760;BME280;3924;48.830;9.262;2023-02-28T00:12:55;99330.50;;;-0.99;59.63
7760;BME280;3924;48.830;9.262;2023-02-28T00:15:23;99332.94;;;-0.98;59.58
7760;BME280;3924;48.830;9.262;2023-02-28T00:17:50;99330.53;;;-0.93;59.60
7760;BME280;3924;48.830;9.262;2023-02-28T00:20:18;99319.66;;;-0.98;59.76
7760;BME280;3924;48.830;9.262;2023-02-28T00:22:47;99323.91;;;-1.03;59.74
7760;BME280;3924;48.830;9.262;2023-02-28T00:25:17;99327.81;;;-1.06;59.92
7760;BME280;3924;48.830;9.262;2023-02-28T00:27:45;99325.56;;;-1.09;60.23
7760;BME280;3924;48.830;9.262;2023-02-28T00:30:14;99330.88;;;-1.09;60.05
7760;BME280;3924;48.830;9.262;2023-02-28T00:32:41;99327.41;;;-1.09;60.22
7760;BME280;3924;48.830;9.262;2023-02-28T00:35:08;99326.34;;;-1.15;60.35
7760;BME280;3924;48.830;9.262;2023-02-28T00:37:36;99323.28;;;-1.12;60.00
7760;BME280;3924;48.830;9.262;2023-02-28T00:40:03;99325.69;;;-1.17;60.26
7760;BME280;3924;48.830;9.262;2023-02-28T00:42:34;99338.38;;;-1.19;60.45
7760;BME280;3924;48.830;9.262;2023-02-28T00:45:01;99332.69;;;-1.16;60.26
7760;BME280;3924;48.830;9.262;2023-02-28T00:47:30;99328.19;;;-1.16;60.29
7760;BME280;3924;48.830;9.262;2023-02-28T00:49:57;99333.06;;;-1.19;60.38
7760;BME280;3924;48.830;9.262;2023-02-28T00:52:23;99326.72;;;-1.18;60.71
7760;BME280;3924;48.830;9.262;2023-02-28T00:54:50;99327.16;;;-1.15;60.39
7760;BME280;3924;48.830;9.262;2023-02-28T00:57:17;99329.81;;;-1.15;60.75
7760;BME280;3924;48.830;9.262;2023-02-28T00:59:44;99329.00;;;-1.15;60.50
7760;BME280;3924;48.830;9.262;2023-02-28T01:02:10;99325.31;;;-1.14;60.68
7760;BME280;3924;48.830;9.262;2023-02-28T01:04:37;99335.94;;;-1.21;60.82
7760;BME280;3924;48.830;9.262;2023-02-28T01:07:03;99329.00;;;-1.15;61.19
7760;BME280;3924;48.830;9.262;2023-02-28T01:09:30;99324.72;;;-1.16;60.82
7760;BME280;3924;48.830;9.262;2023-02-28T01:11:56;99333.50;;;-1.16;60.88
7760;BME280;3924;48.830;9.262;2023-02-28T01:14:23;99322.03;;;-1.16;60.86
7760;BME280;3924;48.830;9.262;2023-02-28T01:16:49;99320.78;;;-1.20;61.17
7760;BME280;3924;48.830;9.262;2023-02-28T01:19:17;99321.19;;;-1.23;61.31
7760;BME280;3924;48.830;9.262;2023-02-28T01:21:44;99319.53;;;-1.24;61.37
7760;BME280;3924;48.830;9.262;2023-02-28T01:24:10;99312.56;;;-1.25;61.30
7760;BME280;3924;48.830;9.262;2023-02-28T01:26:36;99309.31;;;-1.27;61.37
7760;BME280;3924;48.830;9.262;2023-02-28T01:29:03;99318.91;;;-1.26;61.38
7760;BME280;3924;48.830;9.262;2023-02-28T01:31:29;99320.78;;;-1.20;61.49
7760;BME280;3924;48.830;9.262;2023-02-28T01:33:56;99318.13;;;-1.20;61.34
7760;BME280;3924;48.830;9.262;2023-02-28T01:36:24;99316.09;;;-1.18;61.54
7760;BME280;3924;48.830;9.262;2023-02-28T01:38:51;99325.88;;;-1.25;61.69
7760;BME280;3924;48.830;9.262;2023-02-28T01:41:24;99310.53;;;-1.30;62.00
7760;BME280;3924;48.830;9.262;2023-02-28T01:43:59;99311.34;;;-1.29;61.89
7760;BME280;3924;48.830;9.262;2023-02-28T01:46:26;99309.72;;;-1.30;62.00
7760;BME280;3924;48.830;9.262;2023-02-28T01:48:54;99320.72;;;-1.33;62.05
7760;BME280;3924;48.830;9.262;2023-02-28T01:51:34;99318.63;;;-1.38;62.07
7760;BME280;3924;48.830;9.262;2023-02-28T01:54:11;99318.06;;;-1.33;62.13
7760;BME280;3924;48.830;9.262;2023-02-28T01:56:44;99310.53;;;-1.30;62.11
7760;BME280;3924;48.830;9.262;2023-02-28T01:59:16;99307.03;;;-1.30;62.17
7760;BME280;3924;48.830;9.262;2023-02-28T02:01:46;99307.66;;;-1.28;62.47
7760;BME280;3924;48.830;9.262;2023-02-28T02:04:13;99301.09;;;-1.32;62.39
7760;BME280;3924;48.830;9.262;2023-02-28T02:06:43;99310.88;;;-1.40;62.57
7760;BME280;3924;48.830;9.262;2023-02-28T02:09:11;99300.63;;;-1.43;62.64
7760;BME280;3924;48.830;9.262;2023-02-28T02:11:41;99306.34;;;-1.46;62.82
7760;BME280;3924;48.830;9.262;2023-02-28T02:14:24;99294.91;;;-1.40;62.95
7760;BME280;3924;48.830;9.262;2023-02-28T02:25:53;99275.75;;;-1.28;62.99
7760;BME280;3924;48.830;9.262;2023-02-28T02:28:41;99276.56;;;-1.28;63.12
7760;BME280;3924;48.830;9.262;2023-02-28T02:36:42;99276.59;;;-1.21;63.14
7760;BME280;3924;48.830;9.262;2023-02-28T02:39:31;99271.28;;;-1.21;63.13
7760;BME280;3924;48.830;9.262;2023-02-28T02:42:11;99278.66;;;-1.23;63.32
7760;BME280;3924;48.830;9.262;2023-02-28T02:44:46;99278.00;;;-1.25;63.41
7760;BME280;3924;48.830;9.262;2023-02-28T02:47:17;99275.34;;;-1.25;63.54
7760;BME280;3924;48.830;9.262;2023-02-28T02:49:50;99276.38;;;-1.26;63.52
7760;BME280;3924;48.830;9.262;2023-02-28T02:52:21;99273.09;;;-1.28;63.68
7760;BME280;3924;48.830;9.262;2023-02-28T02:54:50;99276.16;;;-1.25;63.67
7760;BME280;3924;48.830;9.262;2023-02-28T02:57:35;99277.00;;;-1.18;63.51
7760;BME280;3924;48.830;9.262;2023-02-28T03:00:03;99276.00;;;-1.10;63.71
7760;BME280;3924;48.830;9.262;2023-02-28T03:02:32;99272.56;;;-1.04;63.66
7760;BME280;3924;48.830;9.262;2023-02-28T03:05:04;99274.59;;;-1.06;63.70
7760;BME280;3924;48.830;9.262;2023-02-28T03:07:32;99266.81;;;-1.07;63.84
7760;BME280;3924;48.830;9.262;2023-02-28T03:09:59;99267.22;;;-1.04;63.63
7760;BME280;3924;48.830;9.262;2023-02-28T03:12:49;99274.19;;;-1.09;63.73
7760;BME280;3924;48.830;9.262;2023-02-28T03:18:40;99280.72;;;-1.12;64.25
7760;BME280;3924;48.830;9.262;2023-02-28T03:26:21;99283.56;;;-1.14;64.45
7760;BME280;3924;48.830;9.262;2023-02-28T03:29:05;99283.00;;;-1.09;64.52
7760;BME280;3924;48.830;9.262;2023-02-28T03:31:40;99273.38;;;-1.03;64.14
7760;BME280;3924;48.830;9.262;2023-02-28T03:34:17;99279.34;;;-1.01;64.45
7760;BME280;3924;48.830;9.262;2023-02-28T03:36:50;99272.56;;;-1.04;64.66
7760;BME280;3924;48.830;9.262;2023-02-28T03:39:21;99277.06;;;-0.98;64.65
7760;BME280;3924;48.830;9.262;2023-02-28T03:41:57;99276.88;;;-0.90;64.50
7760;BME280;3924;48.830;9.262;2023-02-28T03:47:04;99278.09;;;-0.99;64.74
7760;BME280;3924;48.830;9.262;2023-02-28T03:49:43;99276.69;;;-0.95;64.98
7760;BME280;3924;48.830;9.262;2023-02-28T03:52:11;99272.19;;;-0.94;64.67
7760;BME280;3924;48.830;9.262;2023-02-28T03:54:44;99271.97;;;-0.93;64.85
7760;BME280;3924;48.830;9.262;2023-02-28T03:57:18;99266.66;;;-0.93;65.00
7760;BME280;3924;48.830;9.262;2023-02-28T03:59:54;99273.00;;;-0.94;65.12
7760;BME280;3924;48.830;9.262;2023-02-28T04:02:23;99270.97;;;-0.92;65.05
7760;BME280;3924;48.830;9.262;2023-02-28T04:04:49;99278.72;;;-0.90;65.16
7760;BME280;3924;48.830;9.262;2023-02-28T04:07:17;99275.47;;;-0.92;64.91
7760;BME280;3924;48.830;9.262;2023-02-28T04:09:44;99281.56;;;-0.98;65.22
7760;BME280;3924;48.830;9.262;2023-02-28T04:12:10;99282.41;;;-0.98;65.42
7760;BME280;3924;48.830;9.262;2023-02-28T04:14:37;99285.25;;;-0.99;65.39
7760;BME280;3924;48.830;9.262;2023-02-28T04:17:03;99286.50;;;-1.02;65.33
7760;BME280;3924;48.830;9.262;2023-02-28T04:19:30;99283.03;;;-1.02;65.72
7760;BME280;3924;48.830;9.262;2023-02-28T04:21:56;99288.94;;;-1.00;65.55
7760;BME280;3924;48.830;9.262;2023-02-28T04:24:25;99289.34;;;-0.97;65.66
7760;BME280;3924;48.830;9.262;2023-02-28T04:26:55;99288.97;;;-0.94;65.78
7760;BME280;3924;48.830;9.262;2023-02-28T04:29:27;99291.44;;;-0.92;65.57
7760;BME280;3924;48.830;9.262;2023-02-28T04:31:55;99281.38;;;-0.97;65.61
7760;BME280;3924;48.830;9.262;2023-02-28T04:34:29;99285.88;;;-0.97;65.79
7760;BME280;3924;48.830;9.262;2023-02-28T04:36:56;99279.72;;;-0.98;65.74
7760;BME280;3924;48.830;9.262;2023-02-28T04:39:38;99286.31;;;-0.94;65.83
7760;BME280;3924;48.830;9.262;2023-02-28T04:42:05;99279.16;;;-0.93;66.18
7760;BME280;3924;48.830;9.262;2023-02-28T04:44:31;99283.66;;;-0.94;65.84
7760;BME280;3924;48.830;9.262;2023-02-28T04:46:58;99277.50;;;-0.94;66.05
7760;BME280;3924;48.830;9.262;2023-02-28T04:49:25;99279.97;;;-0.93;66.03
7760;BME280;3924;48.830;9.262;2023-02-28T04:51:51;99279.16;;;-0.93;66.02
7760;BME280;3924;48.830;9.262;2023-02-28T04:54:19;99275.06;;;-0.96;66.20
7760;BME280;3924;48.830;9.262;2023-02-28T04:56:45;99282.41;;;-0.98;66.27
7760;BME280;3924;48.830;9.262;2023-02-28T04:59:12;99274.03;;;-0.95;66.31
7760;BME280;3924;48.830;9.262;2023-02-28T05:01:39;99282.22;;;-0.90;66.37
7760;BME280;3924;48.830;9.262;2023-02-28T05:04:05;99279.16;;;-0.87;66.10
7760;BME280;3924;48.830;9.262;2023-02-28T05:06:32;99287.53;;;-0.90;66.17
7760;BME280;3924;48.830;9.262;2023-02-28T05:08:59;99290.19;;;-0.90;66.57
7760;BME280;3924;48.830;9.262;2023-02-28T05:11:31;99280.41;;;-0.89;66.47
7760;BME280;3924;48.830;9.262;2023-02-28T05:14:06;99284.88;;;-0.90;66.52
7760;BME280;3924;48.830;9.262;2023-02-28T05:16:33;99289.78;;;-0.93;66.40
7760;BME280;3924;48.830;9.262;2023-02-28T05:19:00;99289.59;;;-0.92;66.69
7760;BME280;3924;48.830;9.262;2023-02-28T05:21:40;99285.50;;;-0.88;66.66
7760;BME280;3924;48.830;9.262;2023-02-28T05:24:10;99278.97;;;-0.85;66.54
7760;BME280;3924;48.830;9.262;2023-02-28T05:26:39;99283.03;;;-0.83;66.76
7760;BME280;3924;48.830;9.262;2023-02-28T05:29:06;99284.06;;;-0.84;66.43
7760;BME280;3924;48.830;9.262;2023-02-28T05:31:34;99290.41;;;-0.85;66.43
7760;BME280;3924;48.830;9.262;2023-02-28T05:34:00;99275.47;;;-0.86;66.87
7760;BME280;3924;48.830;9.262;2023-02-28T05:36:27;99287.75;;;-0.85;66.83
7760;BME280;3924;48.830;9.262;2023-02-28T05:38:53;99291.03;;;-0.83;66.88
7760;BME280;3924;48.830;9.262;2023-02-28T05:41:20;99293.09;;;-0.85;66.91
7760;BME280;3924;48.830;9.262;2023-02-28T05:43:47;99291.44;;;-0.86;67.31
7760;BME280;3924;48.830;9.262;2023-02-28T05:46:14;99291.44;;;-0.86;66.89
7760;BME280;3924;48.830;9.262;2023-02-28T05:48:42;99297.38;;;-0.84;66.91
7760;BME280;3924;48.830;9.262;2023-02-28T05:51:09;99299.00;;;-0.83;66.94
7760;BME280;3924;48.830;9.262;2023-02-28T05:53:36;99295.97;;;-0.79;66.97
7760;BME280;3924;48.830;9.262;2023-02-28T05:56:03;99293.50;;;-0.81;66.97
7760;BME280;3924;48.830;9.262;2023-02-28T05:58:29;99298.03;;;-0.81;67.25
7760;BME280;3924;48.830;9.262;2023-02-28T06:00:58;99305.38;;;-0.84;67.38
7760;BME280;3924;48.830;9.262;2023-02-28T06:03:26;99305.38;;;-0.84;67.21
7760;BME280;3924;48.830;9.262;2023-02-28T06:05:52;99306.00;;;-0.81;67.09
7760;BME280;3924;48.830;9.262;2023-02-28T06:08:19;99308.03;;;-0.77;67.39
7760;BME280;3924;48.830;9.262;2023-02-28T06:10:45;99306.19;;;-0.76;67.26
7760;BME280;3924;48.830;9.262;2023-02-28T06:13:12;99309.50;;;-0.74;67.24
7760;BME280;3924;48.830;9.262;2023-02-28T06:15:39;99312.16;;;-0.74;67.28
7760;BME280;3924;48.830;9.262;2023-02-28T06:18:06;99316.03;;;-0.77;67.21
7760;BME280;3924;48.830;9.262;2023-02-28T06:20:33;99315.41;;;-0.79;67.38
7760;BME280;3924;48.830;9.262;2023-02-28T06:22:59;99311.53;;;-0.76;67.47
7760;BME280;3924;48.830;9.262;2023-02-28T06:25:26;99312.34;;;-0.76;67.38
7760;BME280;3924;48.830;9.262;2023-02-28T06:27:54;99309.06;;;-0.78;67.38
7760;BME280;3924;48.830;9.262;2023-02-28T06:30:21;99316.44;;;-0.80;67.40
7760;BME280;3924;48.830;9.262;2023-02-28T06:32:53;99318.28;;;-0.80;67.41
7760;BME280;3924;48.830;9.262;2023-02-28T06:35:21;99323.41;;;-0.79;67.55
7760;BME280;3924;48.830;9.262;2023-02-28T06:37:47;99322.38;;;-0.78;67.39
7760;BME280;3924;48.830;9.262;2023-02-28T06:40:14;99326.91;;;-0.72;67.63
7760;BME280;3924;48.830;9.262;2023-02-28T06:42:41;99326.09;;;-0.66;67.40
7760;BME280;3924;48.830;9.262;2023-02-28T06:45:08;99331.03;;;-0.63;67.47
7760;BME280;3924;48.830;9.262;2023-02-28T06:47:37;99335.53;;;-0.63;67.70
7760;BME280;3924;48.830;9.262;2023-02-28T06:50:04;99323.84;;;-0.62;67.37
7760;BME280;3924;48.830;9.262;2023-02-28T06:52:31;99335.34;;;-0.62;67.26
7760;BME280;3924;48.830;9.262;2023-02-28T06:54:58;99338.19;;;-0.63;67.48
7760;BME280;3924;48.830;9.262;2023-02-28T06:57:29;99345.78;;;-0.60;67.61
7760;BME280;3924;48.830;9.262;2023-02-28T06:59:58;99333.69;;;-0.56;67.61
7760;BME280;3924;48.830;9.262;2023-02-28T07:02:26;99340.88;;;-0.50;67.54
7760;BME280;3924;48.830;9.262;2023-02-28T07:04:52;99337.63;;;-0.45;67.28
7760;BME280;3924;48.830;9.262;2023-02-28T07:07:19;99342.94;;;-0.45;67.27
7760;BME280;3924;48.830;9.262;2023-02-28T07:09:45;99338.88;;;-0.48;67.34
7760;BME280;3924;48.830;9.262;2023-02-28T07:12:12;99348.66;;;-0.48;67.18
7760;BME280;3924;48.830;9.262;2023-02-28T07:14:38;99343.56;;;-0.43;67.41
7760;BME280;3924;48.830;9.262;2023-02-28T07:17:07;99348.50;;;-0.40;67.47
7760;BME280;3924;48.830;9.262;2023-02-28T07:19:33;99353.81;;;-0.40;67.43
7760;BME280;3924;48.830;9.262;2023-02-28T07:22:00;99351.34;;;-0.35;67.07
7760;BME280;3924;48.830;9.262;2023-02-28T07:24:29;99354.66;;;-0.33;67.53
7760;BME280;3924;48.830;9.262;2023-02-28T07:26:56;99354.44;;;-0.32;67.31
7760;BME280;3924;48.830;9.262;2023-02-28T07:29:22;99350.97;;;-0.32;67.20
7760;BME280;3924;48.830;9.262;2023-02-28T07:31:49;99352.19;;;-0.28;67.44
7760;BME280;3924;48.830;9.262;2023-02-28T07:34:20;99354.25;;;-0.23;67.07
7760;BME280;3924;48.830;9.262;2023-02-28T07:36:46;99354.25;;;-0.23;67.15
7760;BME280;3924;48.830;9.262;2023-02-28T07:39:13;99354.25;;;-0.23;67.13
7760;BME280;3924;48.830;9.262;2023-02-28T07:41:39;99350.56;;;-0.22;67.20
7760;BME280;3924;48.830;9.262;2023-02-28T07:44:10;99360.19;;;-0.21;67.34
7760;BME280;3924;48.830;9.262;2023-02-28T07:46:37;99359.59;;;-0.17;67.26
7760;BME280;3924;48.830;9.262;2023-02-28T07:49:05;99361.66;;;-0.12;67.30
7760;BME280;3924;48.830;9.262;2023-02-28T07:51:32;99354.69;;;-0.13;67.19
7760;BME280;3924;48.830;9.262;2023-02-28T07:53:58;99350.38;;;-0.14;67.14
7760;BME280;3924;48.830;9.262;2023-02-28T07:56:25;99361.84;;;-0.20;67.17
7760;BME280;3924;48.830;9.262;2023-02-28T07:58:51;99366.75;;;-0.17;67.40
7760;BME280;3924;48.830;9.262;2023-02-28T08:01:17;99362.88;;;-0.15;67.31
7760;BME280;3924;48.830;9.262;2023-02-28T08:03:45;99357.16;;;-0.12;67.30
7760;BME280;3924;48.830;9.262;2023-02-28T08:06:20;99364.50;;;-0.07;67.02
7760;BME280;3924;48.830;9.262;2023-02-28T08:08:47;99361.84;;;-0.07;67.26
7760;BME280;3924;48.830;9.262;2023-02-28T08:11:14;99367.16;;;-0.07;67.08
7760;BME280;3924;48.830;9.262;2023-02-28T08:13:42;99363.69;;;-0.08;67.01
7760;BME280;3924;48.830;9.262;2023-02-28T08:16:12;99367.59;;;0.03;67.23
7760;BME280;3924;48.830;9.262;2023-02-28T08:18:40;99371.69;;;0.12;66.84
7760;BME280;3924;48.830;9.262;2023-02-28T08:21:09;99363.72;;;0.19;66.63
7760;BME280;3924;48.830;9.262;2023-02-28T08:23:36;99366.59;;;0.17;67.00
7760;BME280;3924;48.830;9.262;2023-02-28T08:26:03;99374.59;;;0.17;66.97
7760;BME280;3924;48.830;9.262;2023-02-28T08:28:30;99372.53;;;0.19;66.71
7760;BME280;3924;48.830;9.262;2023-02-28T08:30:56;99370.50;;;0.21;66.70
7760;BME280;3924;48.830;9.262;2023-02-28T08:33:24;99376.44;;;0.23;66.72
7760;BME280;3924;48.830;9.262;2023-02-28T08:35:55;99380.72;;;0.24;67.03
7760;BME280;3924;48.830;9.262;2023-02-28T08:38:23;99372.34;;;0.28;66.67
7760;BME280;3924;48.830;9.262;2023-02-28T08:40:50;99381.56;;;0.32;66.51
7760;BME280;3924;48.830;9.262;2023-02-28T08:43:16;99368.66;;;0.35;66.53
7760;BME280;3924;48.830;9.262;2023-02-28T08:45:43;99373.97;;;0.42;66.42
7760;BME280;3924;48.830;9.262;2023-02-28T08:48:09;99374.38;;;0.45;66.11
7760;BME280;3924;48.830;9.262;2023-02-28T08:50:36;99378.66;;;0.46;66.05
7760;BME280;3924;48.830;9.262;2023-02-28T08:53:02;99375.59;;;0.49;66.19
7760;BME280;3924;48.830;9.262;2023-02-28T08:55:29;99374.97;;;0.54;66.08
7760;BME280;3924;48.830;9.262;2023-02-28T08:57:55;99375.78;;;0.61;66.04
7760;BME280;3924;48.830;9.262;2023-02-28T09:00:23;99374.34;;;0.65;65.59
7760;BME280;3924;48.830;9.262;2023-02-28T09:02:49;99382.13;;;0.67;65.72
7760;BME280;3924;48.830;9.262;2023-02-28T09:05:16;99375.16;;;0.66;65.64
7760;BME280;3924;48.830;9.262;2023-02-28T09:07:42;99377.44;;;0.69;65.49
7760;BME280;3924;48.830;9.262;2023-02-28T09:10:09;99379.06;;;0.76;65.45
7760;BME280;3924;48.830;9.262;2023-02-28T09:12:36;99374.91;;;0.80;65.69
7760;BME280;3924;48.830;9.262;2023-02-28T09:15:03;99385.38;;;0.89;65.34
7760;BME280;3924;48.830;9.262;2023-02-28T09:17:29;99379.81;;;0.97;65.15
7760;BME280;3924;48.830;9.262;2023-02-28T09:19:57;99385.97;;;1.04;65.07
7760;BME280;3924;48.830;9.262;2023-02-28T09:22:23;99374.63;;;1.08;65.05
7760;BME280;3924;48.830;9.262;2023-02-28T09:24:50;99383.25;;;1.17;64.84
7760;BME280;3924;48.830;9.262;2023-02-28T09:27:17;99384.06;;;1.18;64.69
7760;BME280;3924;48.830;9.262;2023-02-28T09:29:43;99389.78;;;1.21;64.42
7760;BME280;3924;48.830;9.262;2023-02-28T09:32:10;99388.97;;;1.21;64.71
7760;BME280;3924;48.830;9.262;2023-02-28T09:34:37;99390.81;;;1.20;64.49
7760;BME280;3924;48.830;9.262;2023-02-28T09:37:03;99393.06;;;1.23;64.53
7760;BME280;3924;48.830;9.262;2023-02-28T09:39:30;99393.69;;;1.25;64.33
7760;BME280;3924;48.830;9.262;2023-02-28T09:41:57;99391.03;;;1.25;64.42
7760;BME280;3924;48.830;9.262;2023-02-28T09:44:44;99393.88;;;1.30;64.09
7760;BME280;3924;48.830;9.262;2023-02-28T09:50:38;99403.03;;;1.48;63.48
7760;BME280;3924;48.830;9.262;2023-02-28T09:53:15;99393.16;;;1.48;63.62
7760;BME280;3924;48.830;9.262;2023-02-28T09:55:49;99399.91;;;1.57;63.57
7760;BME280;3924;48.830;9.262;2023-02-28T09:58:24;99398.84;;;1.65;63.03
7760;BME280;3924;48.830;9.262;2023-02-28T10:00:59;99400.66;;;1.71;63.10
7760;BME280;3924;48.830;9.262;2023-02-28T10:03:33;99400.66;;;1.71;63.10
7760;BME280;3924;48.830;9.262;2023-02-28T10:08:38;99392.84;;;1.70;63.25
7760;BME280;3924;48.830;9.262;2023-02-28T10:11:12;99391.78;;;1.77;62.91
7760;BME280;3924;48.830;9.262;2023-02-28T10:16:11;99396.00;;;1.91;62.37
7760;BME280;3924;48.830;9.262;2023-02-28T10:21:43;99407.50;;;1.92;62.54
7760;BME280;3924;48.830;9.262;2023-02-28T10:24:41;99410.34;;;2.04;62.17
7760;BME280;3924;48.830;9.262;2023-02-28T10:27:21;99414.81;;;2.10;62.29
7760;BME280;3924;48.830;9.262;2023-02-28T10:30:00;99416.22;;;2.12;62.08
7760;BME280;3924;48.830;9.262;2023-02-28T10:32:35;99422.16;;;2.21;61.86
7760;BME280;3924;48.830;9.262;2023-02-28T10:35:19;99425.59;;;2.28;61.87
7760;BME280;3924;48.830;9.262;2023-02-28T10:37:49;99415.94;;;2.27;61.54
7760;BME280;3924;48.830;9.262;2023-02-28T10:45:28;99412.53;;;2.38;61.20
7760;BME280;3924;48.830;9.262;2023-02-28T10:47:59;99410.00;;;2.50;61.01
7760;BME280;3924;48.830;9.262;2023-02-28T10:50:29;99403.47;;;2.64;60.94
7760;BME280;3924;48.830;9.262;2023-02-28T10:53:07;99410.72;;;2.82;60.63
7760;BME280;3924;48.830;9.262;2023-02-28T10:55:35;99410.81;;;2.94;60.49
7760;BME280;3924;48.830;9.262;2023-02-28T10:58:02;99403.69;;;3.06;60.09
7760;BME280;3924;48.830;9.262;2023-02-28T11:00:34;99405.97;;;3.21;59.64
7760;BME280;3924;48.830;9.262;2023-02-28T11:03:01;99401.28;;;3.35;59.47
7760;BME280;3924;48.830;9.262;2023-02-28T11:05:31;99393.25;;;3.53;59.31
7760;BME280;3924;48.830;9.262;2023-02-28T11:08:12;99386.53;;;3.92;58.46
7760;BME280;3924;48.830;9.262;2023-02-28T11:10:45;99394.75;;;4.21;58.17
7760;BME280;3924;48.830;9.262;2023-02-28T11:13:20;99382.31;;;4.50;57.73
7760;BME280;3924;48.830;9.262;2023-02-28T11:15:55;99383.16;;;4.74;57.01
7760;BME280;3924;48.830;9.262;2023-02-28T11:18:29;99377.06;;;4.90;56.77
7760;BME280;3924;48.830;9.262;2023-02-28T11:20:59;99370.50;;;5.09;56.72
7760;BME280;3924;48.830;9.262;2023-02-28T11:23:30;99367.31;;;5.12;56.55
7760;BME280;3924;48.830;9.262;2023-02-28T11:26:00;99368.44;;;5.28;56.19
7760;BME280;3924;48.830;9.262;2023-02-28T11:33:53;99370.25;;;5.80;55.27
7760;BME280;3924;48.830;9.262;2023-02-28T11:36:24;99357.66;;;5.68;55.23
7760;BME280;3924;48.830;9.262;2023-02-28T11:38:53;99359.78;;;5.66;55.21
7760;BME280;3924;48.830;9.262;2023-02-28T11:41:47;99358.00;;;5.72;55.14
7760;BME280;3924;48.830;9.262;2023-02-28T11:47:21;99355.81;;;5.97;54.37
7760;BME280;3924;48.830;9.262;2023-02-28T11:49:57;99358.66;;;6.08;54.28
7760;BME280;3924;48.830;9.262;2023-02-28T11:55:13;99355.06;;;6.69;53.20
7760;BME280;3924;48.830;9.262;2023-02-28T12:01:13;99354.69;;;6.61;53.58
7760;BME280;3924;48.830;9.262;2023-02-28T12:03:58;99356.47;;;6.55;53.21
7760;BME280;3924;48.830;9.262;2023-02-28T12:06:40;99356.22;;;6.73;52.76
7760;BME280;3924;48.830;9.262;2023-02-28T12:09:54;99354.00;;;6.70;52.67
7760;BME280;3924;48.830;9.262;2023-02-28T12:12:39;99349.25;;;6.77;52.44
7760;BME280;3924;48.830;9.262;2023-02-28T12:15:54;99351.88;;;6.72;52.34
7760;BME280;3924;48.830;9.262;2023-02-28T12:18:37;99342.56;;;6.80;52.37
7760;BME280;3924;48.830;9.262;2023-02-28T12:26:53;99347.47;;;7.05;51.44
7760;BME280;3924;48.830;9.262;2023-02-28T12:29:25;99344.31;;;6.91;51.57
7760;BME280;3924;48.830;9.262;2023-02-28T12:32:33;99338.50;;;6.99;51.57
7760;BME280;3924;48.830;9.262;2023-02-28T12:35:06;99341.81;;;6.84;51.63
7760;BME280;3924;48.830;9.262;2023-02-28T12:37:47;99334.09;;;6.38;52.33
7760;BME280;3924;48.830;9.262;2023-02-28T12:40:19;99336.06;;;6.59;51.85
7760;BME280;3924;48.830;9.262;2023-02-28T12:42:51;99326.41;;;6.80;51.29
7760;BME280;3924;48.830;9.262;2023-02-28T12:45:26;99327.75;;;6.61;51.55
7760;BME280;3924;48.830;9.262;2023-02-28T12:48:07;99336.56;;;6.56;51.63
7760;BME280;3924;48.830;9.262;2023-02-28T12:50:35;99326.03;;;6.38;51.69
7760;BME280;3924;48.830;9.262;2023-02-28T12:53:22;99322.19;;;6.50;51.47
7760;BME280;3924;48.830;9.262;2023-02-28T12:56:01;99319.06;;;6.58;51.45
7760;BME280;3924;48.830;9.262;2023-02-28T12:58:50;99312.03;;;6.74;50.94
7760;BME280;3924;48.830;9.262;2023-02-28T13:04:20;99303.06;;;6.69;50.72
7760;BME280;3924;48.830;9.262;2023-02-28T13:07:22;99313.69;;;6.97;50.11
7760;BME280;3924;48.830;9.262;2023-02-28T13:09:59;99312.94;;;7.02;50.13
7760;BME280;3924;48.830;9.262;2023-02-28T13:12:27;99311.13;;;7.07;50.06
7760;BME280;3924;48.830;9.262;2023-02-28T13:17:40;99292.28;;;7.34;49.51
7760;BME280;3924;48.830;9.262;2023-02-28T13:20:35;99295.63;;;7.47;49.37
7760;BME280;3924;48.830;9.262;2023-02-28T13:23:02;99295.97;;;7.50;49.26
7760;BME280;3924;48.830;9.262;2023-02-28T13:28:02;99293.16;;;7.67;49.10
7760;BME280;3924;48.830;9.262;2023-02-28T13:31:09;99283.09;;;7.57;48.41
7760;BME280;3924;48.830;9.262;2023-02-28T13:38:52;99294.97;;;7.88;48.64
7760;BME280;3924;48.830;9.262;2023-02-28T13:44:00;99292.13;;;7.46;48.94
7760;BME280;3924;48.830;9.262;2023-02-28T13:46:27;99285.53;;;7.59;48.70
7760;BME280;3924;48.830;9.262;2023-02-28T13:48:54;99295.75;;;7.57;48.55
7760;BME280;3924;48.830;9.262;2023-02-28T13:51:43;99294.13;;;7.56;48.34
7760;BME280;3924;48.830;9.262;2023-02-28T13:54:27;99286.28;;;7.54;48.73
7760;BME280;3924;48.830;9.262;2023-02-28T14:03:01;99287.72;;;7.62;48.08
7760;BME280;3924;48.830;9.262;2023-02-28T14:05:33;99286.72;;;7.73;47.57
7760;BME280;3924;48.830;9.262;2023-02-28T14:08:08;99283.81;;;7.80;47.68
7760;BME280;3924;48.830;9.262;2023-02-28T14:10:46;99280.91;;;7.86;47.67
7760;BME280;3924;48.830;9.262;2023-02-28T14:13:43;99291.72;;;7.86;47.57
7760;BME280;3924;48.830;9.262;2023-02-28T14:16:16;99291.13;;;7.79;47.54
7760;BME280;3924;48.830;9.262;2023-02-28T14:18:59;99297.19;;;7.64;47.66
7760;BME280;3924;48.830;9.262;2023-02-28T14:21:29;99293.66;;;7.64;47.52
7760;BME280;3924;48.830;9.262;2023-02-28T14:27:03;99280.94;;;7.32;47.74
7760;BME280;3924;48.830;9.262;2023-02-28T14:35:03;99279.91;;;7.38;48.04
7760;BME280;3924;48.830;9.262;2023-02-28T14:37:38;99282.53;;;7.28;48.13
7760;BME280;3924;48.830;9.262;2023-02-28T14:40:15;99290.84;;;7.27;48.05
7760;BME280;3924;48.830;9.262;2023-02-28T14:42:48;99284.06;;;7.24;47.80
7760;BME280;3924;48.830;9.262;2023-02-28T14:45:22;99287.59;;;7.25;47.77
7760;BME280;3924;48.830;9.262;2023-02-28T14:47:50;99289.09;;;7.16;48.01
7760;BME280;3924;48.830;9.262;2023-02-28T14:50:22;99295.56;;;7.15;48.10
7760;BME280;3924;48.830;9.262;2023-02-28T14:52:54;99296.44;;;6.98;48.76
7760;BME280;3924;48.830;9.262;2023-02-28T14:55:28;99298.56;;;6.96;48.64
7760;BME280;3924;48.830;9.262;2023-02-28T14:57:58;99300.19;;;6.97;48.22
7760;BME280;3924;48.830;9.262;2023-02-28T15:00:28;99304.25;;;7.00;48.55
7760;BME280;3924;48.830;9.262;2023-02-28T15:02:59;99298.88;;;7.00;48.21
7760;BME280;3924;48.830;9.262;2023-02-28T15:05:29;99300.53;;;7.01;47.95
7760;BME280;3924;48.830;9.262;2023-02-28T15:08:16;99305.91;;;7.01;48.28
7760;BME280;3924;48.830;9.262;2023-02-28T15:11:07;99309.88;;;6.93;48.19
7760;BME280;3924;48.830;9.262;2023-02-28T15:13:48;99308.97;;;6.88;48.35
7760;BME280;3924;48.830;9.262;2023-02-28T15:16:37;99311.03;;;6.80;48.77
7760;BME280;3924;48.830;9.262;2023-02-28T15:19:19;99311.44;;;6.72;48.68
7760;BME280;3924;48.830;9.262;2023-02-28T15:21:49;99311.56;;;6.61;48.96